Sign in

Goboko is closing

The Goboko aircraft booking service is closing on 21st April 2018 after serving the aviation community for 15 years. Click here for more information

Links

Info

Aviation weather

METAR KDAB 220853Z 00000KT 9SM FEW045 19/19 A3038 RMK AO2 SLP285 T01940189 56007

TAF KDAB 220540Z 2206/2306 11003KT P6SM FEW030 FEW050 FM221500 09009KT P6SM SCT035 FM230000 08003KT P6SM FEW030

Aviation weather from ADDS. Re-check weather before flight.

-